createdAt,value
2019-01-02T00:00:58.832Z,5.57
2019-01-02T00:06:04.112Z,5.20
2019-01-02T00:11:09.579Z,5.20
2019-01-02T00:16:14.995Z,6.63
2019-01-02T00:21:20.539Z,10.60
2019-01-02T00:26:25.996Z,6.67
2019-01-02T00:31:31.389Z,12.03
2019-01-02T00:36:37.333Z,8.97
2019-01-02T00:41:42.543Z,14.93
2019-01-02T00:46:48.138Z,12.33
2019-01-02T00:51:53.682Z,12.33
2019-01-02T00:56:58.878Z,17.43
2019-01-02T01:02:04.172Z,13.97
2019-01-02T01:07:09.377Z,18.50
2019-01-02T01:12:14.576Z,15.70
2019-01-02T01:17:20.082Z,12.30
2019-01-02T01:22:25.881Z,15.73
2019-01-02T01:27:31.625Z,12.93
2019-01-02T01:32:37.210Z,18.60
2019-01-02T01:37:47.580Z,12.27
2019-01-02T01:42:52.921Z,13.50
2019-01-02T01:47:59.414Z,8.53
2019-01-02T01:53:05.289Z,10.40
2019-01-02T01:58:10.495Z,15.07
2019-01-02T02:03:16.111Z,17.80
2019-01-02T02:08:21.551Z,18.23
2019-01-02T02:13:26.743Z,16.07
2019-01-02T02:18:31.930Z,9.87
2019-01-02T02:23:37.484Z,12.97
2019-01-02T02:28:42.765Z,14.67
2019-01-02T02:33:47.968Z,12.83
2019-01-02T02:38:53.555Z,7.60
2019-01-02T02:43:59.219Z,12.03
2019-01-02T02:49:05.090Z,14.40
2019-01-02T02:54:10.569Z,11.50
2019-01-02T02:59:16.375Z,15.73
2019-01-02T03:04:21.859Z,15.73
2019-01-02T03:09:27.630Z,12.83
2019-01-02T03:14:32.873Z,8.17
2019-01-02T03:19:38.051Z,8.17
2019-01-02T03:24:43.991Z,16.77
2019-01-02T03:29:49.456Z,12.67
2019-01-02T03:34:54.735Z,13.13
2019-01-02T03:40:00.808Z,10.70
2019-01-02T03:45:08.441Z,11.33
2019-01-02T03:50:15.635Z,17.90
2019-01-02T03:55:20.818Z,15.40
2019-01-02T04:00:26.021Z,15.43
2019-01-02T04:05:32.437Z,19.47
2019-01-02T04:10:37.680Z,14.93
2019-01-02T04:15:42.886Z,10.13
2019-01-02T04:20:48.085Z,17.13
2019-01-02T04:25:53.283Z,12.70
2019-01-02T04:30:58.526Z,21.37
2019-01-02T04:36:04.048Z,18.00
2019-01-02T04:41:09.302Z,19.97
2019-01-02T04:46:14.926Z,16.53
2019-01-02T04:51:20.478Z,19.43
2019-01-02T04:56:29.790Z,19.80
2019-01-02T05:01:35.269Z,21.57
2019-01-02T05:06:40.601Z,25.90
2019-01-02T05:11:45.784Z,20.67
2019-01-02T05:16:51.411Z,18.97
2019-01-02T05:21:56.981Z,15.67
2019-01-02T05:27:03.090Z,14.93
2019-01-02T05:32:08.582Z,12.13
2019-01-02T05:37:13.877Z,18.30
2019-01-02T05:42:19.146Z,18.80
2019-01-02T05:47:24.421Z,20.00
2019-01-02T05:52:29.661Z,19.53
2019-01-02T05:57:35.583Z,13.93
2019-01-02T06:02:40.952Z,19.13
2019-01-02T06:07:46.467Z,13.33
2019-01-02T06:12:51.668Z,18.80
2019-01-02T06:17:57.259Z,17.93
2019-01-02T06:23:02.592Z,18.70
2019-01-02T06:28:08.293Z,15.87
2019-01-02T06:33:13.471Z,17.80
2019-01-02T06:38:18.903Z,15.80
2019-01-02T06:43:24.254Z,12.97
2019-01-02T06:48:29.809Z,13.53
2019-01-02T06:53:34.986Z,13.67
2019-01-02T06:58:40.328Z,17.43
2019-01-02T07:03:45.597Z,12.50
2019-01-02T07:08:50.843Z,16.33
2019-01-02T07:13:56.455Z,14.27
2019-01-02T07:19:01.924Z,15.07
2019-01-02T07:24:07.301Z,15.00
2019-01-02T07:29:12.605Z,14.93
2019-01-02T07:34:34.765Z,17.80
2019-01-02T07:40:18.070Z,16.03
2019-01-02T07:45:59.395Z,19.47
2019-01-02T07:51:56.964Z,17.70
2019-01-02T07:57:38.413Z,16.63
2019-01-02T08:03:07.756Z,17.60
2019-01-02T08:09:05.428Z,10.07
2019-01-02T08:15:03.286Z,16.07
2019-01-02T08:21:00.078Z,12.90
2019-01-02T08:26:33.876Z,13.37
2019-01-02T08:32:20.002Z,21.13
2019-01-02T08:37:49.488Z,10.73
2019-01-02T08:43:36.430Z,12.43
2019-01-02T08:48:50.294Z,12.53
2019-01-02T08:54:51.984Z,14.87
2019-01-02T09:00:42.606Z,11.53
2019-01-02T09:06:38.085Z,10.70
2019-01-02T09:12:18.942Z,10.53
2019-01-02T09:17:51.759Z,12.17
2019-01-02T09:23:17.608Z,10.23
2019-01-02T09:29:08.862Z,11.43
2019-01-02T09:34:58.723Z,10.00
2019-01-02T09:40:43.747Z,11.27
2019-01-02T09:46:17.653Z,11.80
2019-01-02T09:52:13.014Z,6.67
2019-01-02T09:57:52.002Z,11.17
2019-01-02T10:03:43.583Z,12.20
2019-01-02T10:09:30.858Z,9.87
2019-01-02T10:15:16.552Z,8.80
2019-01-02T10:20:44.056Z,9.83
2019-01-02T10:26:29.534Z,13.83
2019-01-02T10:32:15.586Z,13.07
2019-01-02T10:37:47.230Z,8.73
2019-01-02T10:43:37.719Z,6.20
2019-01-02T10:49:18.550Z,9.17
2019-01-02T10:54:51.324Z,7.00
2019-01-02T11:00:16.951Z,4.30
2019-01-02T11:06:14.628Z,6.07
2019-01-02T11:12:02.729Z,8.33
2019-01-02T11:18:07.084Z,7.97
2019-01-02T11:23:54.716Z,6.53
2019-01-02T11:29:20.185Z,5.87
2019-01-02T11:34:55.513Z,7.57
2019-01-02T11:40:34.374Z,7.33
2019-01-02T11:45:39.605Z,9.00
2019-01-02T11:50:44.820Z,4.07
2019-01-02T11:55:50.086Z,4.47
2019-01-02T12:00:55.288Z,4.90
2019-01-02T12:06:00.617Z,3.53
2019-01-02T12:11:05.866Z,4.13
2019-01-02T12:16:11.390Z,7.00
2019-01-02T12:21:16.964Z,4.40
2019-01-02T12:26:22.640Z,3.00
2019-01-02T12:31:28.319Z,9.37
2019-01-02T12:36:33.785Z,3.53
2019-01-02T12:41:38.961Z,6.17
2019-01-02T12:46:44.197Z,3.20
2019-01-02T12:51:49.381Z,5.37
2019-01-02T12:56:55.836Z,6.67
2019-01-02T13:02:37.828Z,5.80
2019-01-02T13:08:27.524Z,7.30
2019-01-02T13:14:38.402Z,6.53
2019-01-02T13:20:18.190Z,5.17
2019-01-02T13:25:29.630Z,4.60
2019-01-02T13:31:34.097Z,6.30
2019-01-02T13:37:35.857Z,3.97
2019-01-02T13:42:52.825Z,5.27
2019-01-02T13:48:57.492Z,3.17
2019-01-02T13:54:02.804Z,6.13
2019-01-02T13:59:08.395Z,4.43
2019-01-02T14:04:13.576Z,6.23
2019-01-02T14:09:18.837Z,5.17
2019-01-02T14:14:24.501Z,5.20
2019-01-02T14:19:29.852Z,4.47
2019-01-02T14:24:35.855Z,5.07
2019-01-02T14:29:41.492Z,3.77
2019-01-02T14:34:46.771Z,4.93
2019-01-02T14:39:52.022Z,3.03
2019-01-02T14:44:58.300Z,5.23
2019-01-02T14:50:03.647Z,3.70
2019-01-02T14:55:08.840Z,5.63
2019-01-02T15:00:14.491Z,5.23
2019-01-02T15:05:20.048Z,4.50
2019-01-02T15:10:25.281Z,6.87
2019-01-02T15:15:30.912Z,3.70
2019-01-02T15:20:36.111Z,5.43
2019-01-02T15:25:41.533Z,9.83
2019-01-02T15:30:46.961Z,6.53
2019-01-02T15:35:52.171Z,8.40
2019-01-02T15:40:57.811Z,3.20
2019-01-02T15:46:03.054Z,5.27
2019-01-02T15:51:08.266Z,6.90
2019-01-02T15:56:13.785Z,4.87
2019-01-02T16:01:19.479Z,2.97
2019-01-02T16:06:25.006Z,6.43
2019-01-02T16:11:31.011Z,6.67
2019-01-02T16:16:36.254Z,6.50
2019-01-02T16:21:41.566Z,7.07
2019-01-02T16:26:47.893Z,4.20
2019-01-02T16:31:53.184Z,8.40
2019-01-02T16:36:59.098Z,5.97
2019-01-02T16:42:04.293Z,8.77
2019-01-02T16:47:09.498Z,4.73
2019-01-02T16:52:14.972Z,6.93
2019-01-02T16:57:20.153Z,6.53
2019-01-02T17:02:25.430Z,5.77
2019-01-02T17:07:30.596Z,5.50
2019-01-02T17:12:36.170Z,10.80
2019-01-02T17:17:41.380Z,6.97
2019-01-02T17:22:46.558Z,6.13
2019-01-02T17:27:51.733Z,5.77
2019-01-02T17:32:56.915Z,5.10
2019-01-02T17:38:02.103Z,5.13
2019-01-02T17:43:07.664Z,3.60
2019-01-02T17:48:13.281Z,6.73
2019-01-02T17:53:19.077Z,6.47
2019-01-02T17:58:24.341Z,5.43
2019-01-02T18:03:29.518Z,3.43
2019-01-02T18:08:34.765Z,9.30
2019-01-02T18:13:39.993Z,5.47
2019-01-02T18:18:45.331Z,6.07
2019-01-02T18:23:51.672Z,4.30
2019-01-02T18:28:57.216Z,4.00
2019-01-02T18:34:02.742Z,8.13
2019-01-02T18:39:09.850Z,7.20
2019-01-02T18:44:20.427Z,3.30
2019-01-02T18:49:22.017Z,6.23
2019-01-02T18:54:27.290Z,4.60
2019-01-02T18:59:32.692Z,3.50
2019-01-02T19:04:39.162Z,5.17
2019-01-02T19:09:45.884Z,5.33
2019-01-02T19:14:52.081Z,2.83
2019-01-02T19:19:57.374Z,10.17
2019-01-02T19:25:02.846Z,5.77
2019-01-02T19:30:11.096Z,4.60
2019-01-02T19:35:16.432Z,3.23
2019-01-02T19:40:21.861Z,3.40
2019-01-02T19:45:27.472Z,4.23
2019-01-02T19:50:32.699Z,4.77
2019-01-02T19:55:38.261Z,4.53
2019-01-02T20:00:45.002Z,6.10
2019-01-02T20:05:51.317Z,5.33
2019-01-02T20:10:57.387Z,5.93
2019-01-02T20:16:02.747Z,3.47
2019-01-02T20:21:08.019Z,5.27
2019-01-02T20:26:14.036Z,3.57
2019-01-02T20:31:20.389Z,4.63
2019-01-02T20:36:26.647Z,7.27
2019-01-02T20:41:30.756Z,9.30
2019-01-02T20:46:36.121Z,6.73
2019-01-02T20:51:41.431Z,5.93
2019-01-02T20:56:48.382Z,7.47
2019-01-02T21:01:53.862Z,5.53
2019-01-02T21:07:00.167Z,9.80
2019-01-02T21:12:05.449Z,8.67
2019-01-02T21:17:10.947Z,4.70
2019-01-02T21:22:17.007Z,5.97
2019-01-02T21:27:22.473Z,3.30
2019-01-02T21:32:28.336Z,7.40
2019-01-02T21:37:33.507Z,4.77
2019-01-02T21:42:39.454Z,3.27
2019-01-02T21:47:44.750Z,4.90
2019-01-02T21:52:49.932Z,4.53
2019-01-02T21:57:55.568Z,7.23
2019-01-02T22:03:01.200Z,3.70
2019-01-02T22:08:06.377Z,2.20
2019-01-02T22:13:11.951Z,6.10
2019-01-02T22:18:18.093Z,3.63
2019-01-02T22:23:23.273Z,5.37
2019-01-02T22:28:28.457Z,4.77
2019-01-02T22:33:33.841Z,2.77
2019-01-02T22:38:39.634Z,2.57
2019-01-02T22:43:44.829Z,5.93
2019-01-02T22:48:50.142Z,3.67
2019-01-02T22:53:55.357Z,3.33
2019-01-02T22:59:00.586Z,2.70
2019-01-02T23:04:41.105Z,7.30
2019-01-02T23:10:04.216Z,5.37
2019-01-02T23:15:34.577Z,2.50
2019-01-02T23:20:57.701Z,6.37
2019-01-02T23:26:27.329Z,4.77
2019-01-02T23:31:51.184Z,4.50
2019-01-02T23:37:15.654Z,4.50
2019-01-02T23:42:45.883Z,3.67
2019-01-02T23:48:17.332Z,5.77
2019-01-02T23:53:54.401Z,4.13
2019-01-02T23:59:30.521Z,6.07
